createdAt,value
2023-01-13T00:01:35.191Z,49.77
2023-01-13T00:04:05.215Z,49.70
2023-01-13T00:06:33.527Z,49.75
2023-01-13T00:09:04.719Z,49.99
2023-01-13T00:11:37.132Z,49.97
2023-01-13T00:14:04.242Z,50.20
2023-01-13T00:16:31.275Z,50.29
2023-01-13T00:18:58.304Z,50.49
2023-01-13T00:21:25.900Z,50.70
2023-01-13T00:23:54.621Z,50.85
2023-01-13T00:26:28.155Z,50.80
2023-01-13T00:28:58.809Z,50.89
2023-01-13T00:31:29.738Z,51.33
2023-01-13T00:33:58.481Z,51.51
2023-01-13T00:36:34.171Z,52.02
2023-01-13T00:39:01.262Z,52.89
2023-01-13T00:41:51.267Z,53.52
2023-01-13T00:44:18.421Z,53.75
2023-01-13T00:46:45.554Z,54.28
2023-01-13T00:49:12.600Z,55.02
2023-01-13T00:51:39.743Z,54.83
2023-01-13T00:54:06.776Z,55.06
2023-01-13T00:56:40.072Z,54.86
2023-01-13T00:59:13.076Z,55.02
2023-01-13T01:01:41.022Z,54.82
2023-01-13T01:04:08.392Z,55.30
2023-01-13T01:06:35.565Z,55.00
2023-01-13T01:09:03.577Z,55.01
2023-01-13T01:11:32.737Z,54.77
2023-01-13T01:14:03.306Z,54.93
2023-01-13T01:16:33.175Z,55.36
2023-01-13T01:19:01.862Z,55.29
2023-01-13T01:21:29.567Z,55.06
2023-01-13T01:24:01.041Z,54.88
2023-01-13T01:26:30.483Z,54.85
2023-01-13T01:28:57.624Z,54.19
2023-01-13T01:31:31.765Z,54.24
2023-01-13T01:34:00.485Z,54.02
2023-01-13T01:36:31.283Z,53.70
2023-01-13T01:38:59.974Z,53.57
2023-01-13T01:41:31.864Z,53.23
2023-01-13T01:44:21.044Z,53.00
2023-01-13T01:46:48.185Z,52.54
2023-01-13T01:49:33.988Z,52.32
2023-01-13T01:52:21.239Z,52.62
2023-01-13T01:54:56.881Z,52.38
2023-01-13T01:57:31.390Z,52.01
2023-01-13T02:00:00.966Z,52.15
2023-01-13T02:02:29.791Z,52.25
2023-01-13T02:04:57.409Z,51.83
2023-01-13T02:07:29.059Z,51.81
2023-01-13T02:10:00.096Z,51.92
2023-01-13T02:12:32.053Z,51.60
2023-01-13T02:15:12.464Z,51.75
2023-01-13T02:17:54.595Z,51.44
2023-01-13T02:20:56.309Z,51.49
2023-01-13T02:24:13.328Z,51.39
2023-01-13T02:27:20.148Z,51.35
2023-01-13T02:30:37.287Z,51.21
2023-01-13T02:33:56.812Z,51.10
2023-01-13T02:36:50.392Z,50.81
2023-01-13T02:39:27.675Z,50.75
2023-01-13T02:42:18.976Z,50.39
2023-01-13T02:44:58.955Z,50.49
2023-01-13T02:47:28.691Z,50.46
2023-01-13T02:50:13.208Z,50.30
2023-01-13T02:53:04.094Z,50.48
2023-01-13T02:55:48.125Z,50.46
2023-01-13T02:58:20.222Z,50.19
2023-01-13T03:00:49.322Z,50.14
2023-01-13T03:03:16.645Z,50.20
2023-01-13T03:05:47.275Z,49.94
2023-01-13T03:08:33.124Z,49.97
2023-01-13T03:11:09.038Z,49.85
2023-01-13T03:13:59.955Z,49.64
2023-01-13T03:17:15.195Z,49.46
2023-01-13T03:20:21.093Z,49.53
2023-01-13T03:23:06.063Z,49.36
2023-01-13T03:25:38.881Z,49.54
2023-01-13T03:28:24.497Z,49.52
2023-01-13T03:30:59.334Z,49.56
2023-01-13T03:33:34.654Z,49.18
2023-01-13T03:36:09.602Z,49.20
2023-01-13T03:38:52.810Z,49.38
2023-01-13T03:41:29.467Z,49.32
2023-01-13T03:44:22.488Z,49.38
2023-01-13T03:47:04.099Z,49.28
2023-01-13T03:49:49.013Z,49.54
2023-01-13T03:52:26.198Z,49.37
2023-01-13T03:55:12.287Z,49.18
2023-01-13T03:57:49.296Z,49.23
2023-01-13T04:00:18.769Z,49.28
2023-01-13T04:02:57.293Z,49.07
2023-01-13T04:05:26.092Z,49.20
2023-01-13T04:08:27.713Z,49.27
2023-01-13T04:11:07.460Z,49.25
2023-01-13T04:13:40.055Z,49.38
2023-01-13T04:16:09.127Z,48.89
2023-01-13T04:18:39.220Z,49.11
2023-01-13T04:21:07.675Z,49.27
2023-01-13T04:23:34.880Z,49.25
2023-01-13T04:26:02.134Z,49.22
2023-01-13T04:28:29.231Z,49.54
2023-01-13T04:30:56.469Z,49.38
2023-01-13T04:33:23.708Z,49.16
2023-01-13T04:35:52.605Z,49.21
2023-01-13T04:38:21.778Z,49.34
2023-01-13T04:40:49.220Z,49.39
2023-01-13T04:43:16.868Z,49.13
2023-01-13T04:45:44.482Z,48.99
2023-01-13T04:48:12.042Z,48.96
2023-01-13T04:50:39.346Z,49.41
2023-01-13T04:53:07.195Z,48.96
2023-01-13T04:55:34.306Z,48.67
2023-01-13T04:58:06.930Z,48.77
2023-01-13T05:00:35.210Z,49.06
2023-01-13T05:03:03.240Z,49.27
2023-01-13T05:05:31.581Z,49.38
2023-01-13T05:07:58.714Z,49.25
2023-01-13T05:10:26.842Z,49.10
2023-01-13T05:13:12.976Z,49.35
2023-01-13T05:16:00.548Z,48.89
2023-01-13T05:18:35.335Z,49.16
2023-01-13T05:21:02.657Z,49.08
2023-01-13T05:23:48.108Z,49.09
2023-01-13T05:26:15.216Z,49.19
2023-01-13T05:28:42.320Z,49.17
2023-01-13T05:31:09.518Z,49.27
2023-01-13T05:33:36.823Z,49.11
2023-01-13T05:36:04.638Z,49.05
2023-01-13T05:38:31.799Z,49.33
2023-01-13T05:41:20.563Z,48.79
2023-01-13T05:43:47.682Z,48.73
2023-01-13T05:46:15.019Z,49.00
2023-01-13T05:48:43.820Z,49.12
2023-01-13T05:51:13.161Z,49.19
2023-01-13T05:53:41.018Z,49.10
2023-01-13T05:56:09.321Z,49.27
2023-01-13T05:58:36.974Z,49.20
2023-01-13T06:01:07.371Z,49.25
2023-01-13T06:03:35.500Z,49.30
2023-01-13T06:06:04.216Z,49.53
2023-01-13T06:08:32.548Z,49.58
2023-01-13T06:10:59.798Z,49.60
2023-01-13T06:13:27.328Z,49.70
2023-01-13T06:15:59.177Z,49.51
2023-01-13T06:18:27.673Z,49.67
2023-01-13T06:20:55.467Z,49.48
2023-01-13T06:23:22.641Z,49.36
2023-01-13T06:26:16.308Z,49.53
2023-01-13T06:28:43.426Z,49.62
2023-01-13T06:31:11.071Z,49.63
2023-01-13T06:33:44.400Z,49.76
2023-01-13T06:36:17.942Z,49.70
2023-01-13T06:38:50.044Z,49.45
2023-01-13T06:41:17.983Z,49.52
2023-01-13T06:43:45.119Z,49.48
2023-01-13T06:46:12.209Z,49.46
2023-01-13T06:48:39.329Z,49.54
2023-01-13T06:51:06.606Z,49.36
2023-01-13T06:53:33.635Z,49.39
2023-01-13T06:56:00.879Z,49.43
2023-01-13T06:58:27.969Z,49.45
2023-01-13T07:00:55.115Z,49.43
2023-01-13T07:03:22.280Z,49.20
2023-01-13T07:05:54.897Z,49.11
2023-01-13T07:08:24.049Z,49.38
2023-01-13T07:10:51.484Z,49.24
2023-01-13T07:13:37.387Z,49.21
2023-01-13T07:16:07.606Z,49.07
2023-01-13T07:18:35.844Z,48.77
2023-01-13T07:21:07.107Z,49.18
2023-01-13T07:23:40.171Z,49.07
2023-01-13T07:26:09.256Z,48.86
2023-01-13T07:28:37.161Z,48.94
2023-01-13T07:31:04.687Z,48.58
2023-01-13T07:33:34.805Z,48.37
2023-01-13T07:36:05.805Z,48.33
2023-01-13T07:38:34.242Z,48.49
2023-01-13T07:41:20.376Z,48.64
2023-01-13T07:43:51.563Z,48.81
2023-01-13T07:46:19.417Z,48.96
2023-01-13T07:48:48.716Z,48.55
2023-01-13T07:51:15.908Z,48.98
2023-01-13T07:53:43.138Z,48.58
2023-01-13T07:56:10.553Z,48.44
2023-01-13T07:58:38.499Z,48.80
2023-01-13T08:01:14.192Z,48.62
2023-01-13T08:03:41.503Z,48.73
2023-01-13T08:06:10.164Z,48.35
2023-01-13T08:08:38.364Z,48.28
2023-01-13T08:11:07.959Z,48.49
2023-01-13T08:13:35.585Z,48.06
2023-01-13T08:16:07.135Z,48.04
2023-01-13T08:18:35.740Z,48.21
2023-01-13T08:21:08.016Z,47.85
2023-01-13T08:23:35.486Z,48.18
2023-01-13T08:26:06.388Z,47.97
2023-01-13T08:28:33.598Z,47.98
2023-01-13T08:31:07.036Z,47.84
2023-01-13T08:33:35.887Z,48.02
2023-01-13T08:36:09.043Z,47.95
2023-01-13T08:38:37.039Z,47.79
2023-01-13T08:41:36.259Z,47.98
2023-01-13T08:44:03.964Z,47.77
2023-01-13T08:46:31.099Z,47.63
2023-01-13T08:48:58.404Z,47.31
2023-01-13T08:51:26.886Z,47.55
2023-01-13T08:53:53.945Z,47.42
2023-01-13T08:56:21.053Z,47.44
2023-01-13T08:58:48.100Z,47.19
2023-01-13T09:01:22.485Z,46.48
2023-01-13T09:03:49.888Z,46.60
2023-01-13T09:06:17.215Z,45.86
2023-01-13T09:08:44.436Z,45.93
2023-01-13T09:11:50.127Z,45.88
2023-01-13T09:14:23.718Z,45.83
2023-01-13T09:16:50.835Z,45.79
2023-01-13T09:19:17.993Z,46.34
2023-01-13T09:21:45.335Z,46.63
2023-01-13T09:24:12.500Z,46.77
2023-01-13T09:26:39.582Z,47.95
2023-01-13T09:29:06.914Z,51.19
2023-01-13T09:31:34.603Z,55.63
2023-01-13T09:34:21.709Z,58.26
2023-01-13T09:36:49.240Z,59.18
2023-01-13T09:39:16.870Z,60.27
2023-01-13T09:42:11.071Z,60.11
2023-01-13T09:44:50.356Z,60.16
2023-01-13T09:47:56.659Z,59.97
2023-01-13T09:50:48.796Z,58.69
2023-01-13T09:53:25.165Z,58.27
2023-01-13T09:55:53.031Z,57.90
2023-01-13T09:58:20.636Z,56.89
2023-01-13T10:01:14.961Z,57.42
2023-01-13T10:03:42.357Z,56.90
2023-01-13T10:06:24.715Z,56.07
2023-01-13T10:08:52.597Z,55.38
2023-01-13T10:11:42.633Z,54.95
2023-01-13T10:14:43.720Z,54.42
2023-01-13T10:17:38.925Z,56.58
2023-01-13T10:21:03.378Z,56.64
2023-01-13T10:24:14.557Z,54.86
2023-01-13T10:27:09.231Z,54.79
2023-01-13T10:29:36.981Z,54.91
2023-01-13T10:32:04.627Z,54.73
2023-01-13T10:34:31.720Z,53.81
2023-01-13T10:37:08.496Z,53.69
2023-01-13T10:39:45.971Z,52.85
2023-01-13T10:42:22.105Z,52.69
2023-01-13T10:44:55.185Z,52.28
2023-01-13T10:47:28.408Z,52.63
2023-01-13T10:50:06.003Z,52.84
2023-01-13T10:52:38.282Z,52.58
2023-01-13T10:55:36.961Z,51.80
2023-01-13T10:58:18.479Z,52.11
2023-01-13T11:00:46.481Z,51.92
2023-01-13T11:03:22.095Z,51.38
2023-01-13T11:05:55.918Z,51.33
2023-01-13T11:08:45.316Z,50.50
2023-01-13T11:11:34.611Z,51.72
2023-01-13T11:14:26.279Z,51.96
2023-01-13T11:16:58.149Z,52.02
2023-01-13T11:19:31.268Z,52.88
2023-01-13T11:22:12.777Z,52.70
2023-01-13T11:24:56.535Z,52.64
2023-01-13T11:27:59.721Z,52.24
2023-01-13T11:30:44.285Z,52.37
2023-01-13T11:33:14.057Z,51.88
2023-01-13T11:36:05.512Z,50.06
2023-01-13T11:38:48.514Z,48.48
2023-01-13T11:41:28.948Z,47.93
2023-01-13T11:44:31.279Z,48.73
2023-01-13T11:46:58.430Z,49.88
2023-01-13T11:49:33.221Z,50.05
2023-01-13T11:52:14.760Z,50.86
2023-01-13T11:55:08.173Z,51.02
2023-01-13T11:57:50.992Z,50.74
2023-01-13T12:00:36.477Z,51.16
2023-01-13T12:03:38.888Z,50.88
2023-01-13T12:06:30.316Z,50.09
2023-01-13T12:09:58.260Z,49.41
2023-01-13T12:12:44.223Z,49.39
2023-01-13T12:15:52.643Z,48.38
2023-01-13T12:18:41.012Z,47.39
2023-01-13T12:21:29.161Z,44.08
2023-01-13T12:24:19.006Z,40.03
2023-01-13T12:27:11.053Z,36.79
2023-01-13T12:29:39.889Z,35.27
2023-01-13T12:32:19.152Z,35.05
2023-01-13T12:35:08.897Z,37.60
2023-01-13T12:37:44.937Z,37.91
2023-01-13T12:40:38.731Z,35.29
2023-01-13T12:43:36.471Z,34.98
2023-01-13T12:46:22.014Z,37.67
2023-01-13T12:48:56.744Z,41.12
2023-01-13T12:51:57.528Z,42.94
2023-01-13T12:54:39.733Z,43.85
2023-01-13T12:57:27.279Z,42.79
2023-01-13T13:00:03.177Z,42.90
2023-01-13T13:03:11.146Z,44.78
2023-01-13T13:06:00.560Z,45.35
2023-01-13T13:09:03.430Z,41.67
2023-01-13T13:11:58.232Z,39.94
2023-01-13T13:14:57.633Z,36.87
2023-01-13T13:17:31.730Z,36.21
2023-01-13T13:20:01.461Z,34.74
2023-01-13T13:22:28.685Z,34.96
2023-01-13T13:24:55.840Z,34.93
2023-01-13T13:27:37.501Z,33.24
2023-01-13T13:30:19.765Z,34.67
2023-01-13T13:33:11.610Z,37.18
2023-01-13T13:35:59.709Z,36.99
2023-01-13T13:39:11.890Z,35.41
2023-01-13T13:42:04.313Z,34.56
2023-01-13T13:44:59.628Z,33.84
2023-01-13T13:47:41.142Z,34.07
2023-01-13T13:50:20.926Z,36.00
2023-01-13T13:52:56.396Z,34.92
2023-01-13T13:55:28.327Z,35.22
2023-01-13T13:57:57.657Z,34.48
2023-01-13T14:00:34.796Z,33.10
2023-01-13T14:03:32.442Z,34.79
2023-01-13T14:06:05.674Z,36.21
2023-01-13T14:08:39.487Z,36.32
2023-01-13T14:11:32.440Z,39.86
2023-01-13T14:14:09.164Z,41.83
2023-01-13T14:16:40.573Z,43.38
2023-01-13T14:19:29.135Z,44.30
2023-01-13T14:22:02.047Z,45.36
2023-01-13T14:24:32.161Z,45.54
2023-01-13T14:27:16.699Z,45.18
2023-01-13T14:29:45.289Z,45.12
2023-01-13T14:32:20.487Z,44.85
2023-01-13T14:34:47.889Z,44.91
2023-01-13T14:37:39.568Z,44.73
2023-01-13T14:40:33.067Z,44.98
2023-01-13T14:43:02.147Z,45.32
2023-01-13T14:45:30.515Z,45.58
2023-01-13T14:48:01.377Z,45.56
2023-01-13T14:50:34.736Z,45.44
2023-01-13T14:53:22.956Z,45.60
2023-01-13T14:55:50.747Z,45.56
2023-01-13T14:58:26.056Z,45.50
2023-01-13T15:01:29.818Z,45.67
2023-01-13T15:04:26.367Z,45.69
2023-01-13T15:06:56.020Z,46.23
2023-01-13T15:09:29.373Z,46.07
2023-01-13T15:11:58.807Z,45.86
2023-01-13T15:14:34.848Z,52.81
2023-01-13T15:17:02.941Z,58.11
2023-01-13T15:19:30.222Z,58.37
2023-01-13T15:21:57.232Z,59.86
2023-01-13T15:24:24.271Z,60.59
2023-01-13T15:26:52.174Z,60.20
2023-01-13T15:29:19.761Z,59.78
2023-01-13T15:31:46.776Z,58.82
2023-01-13T15:34:16.886Z,59.09
2023-01-13T15:36:43.979Z,59.13
2023-01-13T15:39:13.254Z,58.88
2023-01-13T15:41:58.605Z,58.71
2023-01-13T15:44:44.623Z,58.66
2023-01-13T15:47:13.395Z,58.53
2023-01-13T15:49:49.695Z,58.89
2023-01-13T15:52:26.324Z,58.85
2023-01-13T15:54:54.901Z,58.79
2023-01-13T15:57:28.929Z,58.34
2023-01-13T16:00:00.753Z,58.66
2023-01-13T16:02:29.737Z,58.41
2023-01-13T16:04:57.381Z,58.30
2023-01-13T16:07:25.765Z,57.63
2023-01-13T16:09:53.180Z,57.62
2023-01-13T16:12:20.597Z,57.30
2023-01-13T16:14:47.738Z,57.31
2023-01-13T16:17:22.289Z,57.39
2023-01-13T16:19:49.941Z,57.79
2023-01-13T16:22:17.977Z,58.21
2023-01-13T16:24:45.141Z,57.73
2023-01-13T16:27:22.609Z,57.25
2023-01-13T16:29:51.087Z,56.58
2023-01-13T16:32:20.822Z,56.08
2023-01-13T16:34:48.590Z,55.22
2023-01-13T16:37:25.629Z,54.74
2023-01-13T16:39:54.500Z,54.02
2023-01-13T16:42:22.029Z,53.65
2023-01-13T16:44:50.732Z,53.43
2023-01-13T16:47:28.187Z,52.96
2023-01-13T16:49:55.525Z,52.13
2023-01-13T16:52:22.730Z,51.93
2023-01-13T16:54:49.870Z,51.62
2023-01-13T16:57:17.158Z,51.55
2023-01-13T16:59:44.202Z,50.90
2023-01-13T17:02:19.264Z,50.75
2023-01-13T17:04:48.042Z,50.61
2023-01-13T17:07:17.705Z,50.47
2023-01-13T17:09:44.833Z,50.38
2023-01-13T17:12:12.036Z,50.28
2023-01-13T17:14:41.379Z,49.99
2023-01-13T17:17:22.168Z,50.14
2023-01-13T17:19:49.495Z,49.61
2023-01-13T17:22:16.902Z,49.37
2023-01-13T17:24:44.148Z,49.82
2023-01-13T17:27:11.790Z,49.34
2023-01-13T17:29:39.508Z,48.96
2023-01-13T17:32:06.715Z,48.86
2023-01-13T17:34:33.937Z,48.52
2023-01-13T17:37:01.234Z,48.11
2023-01-13T17:39:28.709Z,48.20
2023-01-13T17:41:58.419Z,47.59
2023-01-13T17:44:25.703Z,47.60
2023-01-13T17:46:53.020Z,47.88
2023-01-13T17:49:21.801Z,47.58
2023-01-13T17:51:51.152Z,47.54
2023-01-13T17:54:19.221Z,47.37
2023-01-13T17:56:46.881Z,47.79
2023-01-13T17:59:17.377Z,47.58
2023-01-13T18:01:45.791Z,47.28
2023-01-13T18:04:19.692Z,47.26
2023-01-13T18:06:47.196Z,47.20
2023-01-13T18:09:15.443Z,47.15
2023-01-13T18:11:43.581Z,47.14
2023-01-13T18:14:11.803Z,48.33
2023-01-13T18:16:39.335Z,51.39
2023-01-13T18:19:25.447Z,52.00
2023-01-13T18:22:28.417Z,51.25
2023-01-13T18:25:14.197Z,52.04
2023-01-13T18:27:41.802Z,51.28
2023-01-13T18:30:12.301Z,51.13
2023-01-13T18:32:39.754Z,50.62
2023-01-13T18:35:12.558Z,49.94
2023-01-13T18:37:42.321Z,49.17
2023-01-13T18:40:12.951Z,49.35
2023-01-13T18:42:54.190Z,49.20
2023-01-13T18:45:28.261Z,48.78
2023-01-13T18:47:58.936Z,48.38
2023-01-13T18:50:27.221Z,48.46
2023-01-13T18:52:54.485Z,47.95
2023-01-13T18:55:21.993Z,47.82
2023-01-13T18:57:50.288Z,48.02
2023-01-13T19:00:20.869Z,47.71
2023-01-13T19:02:50.838Z,47.90
2023-01-13T19:05:18.464Z,47.86
2023-01-13T19:07:51.258Z,47.30
2023-01-13T19:10:19.098Z,48.04
2023-01-13T19:12:46.226Z,47.77
2023-01-13T19:15:13.565Z,47.91
2023-01-13T19:17:40.744Z,47.42
2023-01-13T19:20:10.049Z,47.81
2023-01-13T19:22:37.208Z,47.88
2023-01-13T19:25:05.207Z,47.64
2023-01-13T19:27:32.485Z,47.95
2023-01-13T19:30:00.724Z,47.74
2023-01-13T19:32:30.715Z,47.87
2023-01-13T19:34:59.684Z,48.33
2023-01-13T19:37:31.660Z,48.31
2023-01-13T19:39:59.563Z,48.46
2023-01-13T19:42:46.347Z,48.38
2023-01-13T19:45:27.372Z,48.46
2023-01-13T19:47:56.401Z,48.62
2023-01-13T19:50:24.541Z,48.84
2023-01-13T19:52:51.888Z,48.73
2023-01-13T19:55:19.818Z,48.93
2023-01-13T19:57:47.097Z,48.85
2023-01-13T20:00:20.245Z,49.27
2023-01-13T20:02:49.604Z,49.33
2023-01-13T20:05:22.431Z,49.09
2023-01-13T20:07:51.165Z,49.36
2023-01-13T20:10:20.737Z,49.23
2023-01-13T20:12:48.092Z,49.59
2023-01-13T20:15:15.389Z,50.05
2023-01-13T20:17:42.633Z,49.61
2023-01-13T20:20:12.060Z,49.74
2023-01-13T20:22:40.967Z,49.58
2023-01-13T20:25:09.689Z,50.08
2023-01-13T20:27:36.977Z,50.24
2023-01-13T20:30:06.332Z,50.06
2023-01-13T20:32:33.443Z,50.30
2023-01-13T20:35:00.519Z,50.34
2023-01-13T20:37:27.874Z,50.14
2023-01-13T20:39:57.489Z,49.98
2023-01-13T20:42:30.472Z,49.61
2023-01-13T20:45:00.736Z,49.58
2023-01-13T20:47:30.866Z,50.01
2023-01-13T20:49:59.379Z,49.99
2023-01-13T20:52:26.776Z,49.59
2023-01-13T20:54:53.832Z,49.34
2023-01-13T20:57:20.905Z,50.09
2023-01-13T20:59:48.396Z,49.96
2023-01-13T21:02:16.996Z,49.94
2023-01-13T21:04:44.295Z,50.25
2023-01-13T21:07:11.976Z,50.24
2023-01-13T21:09:39.238Z,50.54
2023-01-13T21:12:26.110Z,50.25
2023-01-13T21:15:12.379Z,49.99
2023-01-13T21:17:58.481Z,49.87
2023-01-13T21:20:25.680Z,50.23
2023-01-13T21:22:53.038Z,50.34
2023-01-13T21:25:20.223Z,50.53
2023-01-13T21:27:47.378Z,50.60
2023-01-13T21:30:17.044Z,50.34
2023-01-13T21:32:45.367Z,50.05
2023-01-13T21:35:14.356Z,49.81
2023-01-13T21:37:43.403Z,49.99
2023-01-13T21:40:14.214Z,49.99
2023-01-13T21:43:00.726Z,50.25
2023-01-13T21:45:46.754Z,49.92
2023-01-13T21:48:13.899Z,50.43
2023-01-13T21:50:41.974Z,50.32
2023-01-13T21:53:09.327Z,49.90
2023-01-13T21:55:37.525Z,50.47
2023-01-13T21:58:12.601Z,50.57
2023-01-13T22:00:42.216Z,50.50
2023-01-13T22:03:12.457Z,51.20
2023-01-13T22:05:40.314Z,51.35
2023-01-13T22:08:07.906Z,51.17
2023-01-13T22:10:35.416Z,51.24
2023-01-13T22:13:23.811Z,51.21
2023-01-13T22:15:51.224Z,50.99
2023-01-13T22:18:18.455Z,51.02
2023-01-13T22:20:46.057Z,50.87
2023-01-13T22:23:13.224Z,51.07
2023-01-13T22:25:40.307Z,51.51
2023-01-13T22:28:09.221Z,51.30
2023-01-13T22:30:36.704Z,51.19
2023-01-13T22:33:03.877Z,50.88
2023-01-13T22:35:30.981Z,50.96
2023-01-13T22:37:58.586Z,50.75
2023-01-13T22:40:25.693Z,51.08
2023-01-13T22:42:52.791Z,50.95
2023-01-13T22:45:19.868Z,50.84
2023-01-13T22:47:47.669Z,50.97
2023-01-13T22:50:16.682Z,51.12
2023-01-13T22:52:43.873Z,51.10
2023-01-13T22:55:10.911Z,51.20
2023-01-13T22:57:47.183Z,50.92
2023-01-13T23:00:19.073Z,51.14
2023-01-13T23:02:46.729Z,51.35
2023-01-13T23:05:14.039Z,51.09
2023-01-13T23:07:41.368Z,51.06
2023-01-13T23:10:09.384Z,51.26
2023-01-13T23:12:36.684Z,51.67
2023-01-13T23:15:05.387Z,51.56
2023-01-13T23:17:32.433Z,52.27
2023-01-13T23:19:59.446Z,52.50
2023-01-13T23:22:26.549Z,52.89
2023-01-13T23:24:53.619Z,52.79
2023-01-13T23:27:20.720Z,53.41
2023-01-13T23:29:49.041Z,53.37
2023-01-13T23:32:16.084Z,53.40
2023-01-13T23:34:43.118Z,53.82
2023-01-13T23:37:10.129Z,53.53
2023-01-13T23:39:37.240Z,53.50
2023-01-13T23:42:04.341Z,53.74
2023-01-13T23:44:31.408Z,53.29
2023-01-13T23:46:58.843Z,53.18
2023-01-13T23:49:25.917Z,53.34
2023-01-13T23:51:53.619Z,52.98
2023-01-13T23:54:20.986Z,52.92
2023-01-13T23:56:52.482Z,52.62
2023-01-13T23:59:20.319Z,52.42
